createdAt,value
2023-01-01T00:00:24.181Z, 28.05
2023-01-01T00:01:24.115Z, 28.07
2023-01-01T00:02:24.208Z, 28.05
2023-01-01T00:03:24.126Z, 28.04
2023-01-01T00:04:24.085Z, 28.02
2023-01-01T00:05:24.088Z, 27.99
2023-01-01T00:06:24.089Z, 27.97
2023-01-01T00:07:24.127Z, 27.95
2023-01-01T00:08:24.204Z, 27.95
2023-01-01T00:09:24.177Z, 27.93
2023-01-01T00:10:24.276Z, 27.92
2023-01-01T00:11:24.216Z, 27.90
2023-01-01T00:12:24.243Z, 27.90
2023-01-01T00:13:24.214Z, 27.90
2023-01-01T00:14:24.278Z, 27.88
2023-01-01T00:15:24.246Z, 27.89
2023-01-01T00:16:24.305Z, 27.89
2023-01-01T00:17:24.311Z, 27.86
2023-01-01T00:18:24.276Z, 27.84
2023-01-01T00:19:24.351Z, 27.82
2023-01-01T00:20:26.612Z, 27.82
2023-01-01T00:21:24.316Z, 27.81
2023-01-01T00:22:53.456Z, 27.80
2023-01-01T00:23:24.328Z, 27.80
2023-01-01T00:24:24.327Z, 27.80
2023-01-01T00:25:24.361Z, 27.79
2023-01-01T00:26:28.167Z, 27.78
2023-01-01T00:27:24.454Z, 27.76
2023-01-01T00:28:24.408Z, 27.74
2023-01-01T00:29:24.410Z, 27.71
2023-01-01T00:30:24.419Z, 27.72
2023-01-01T00:31:24.464Z, 27.71
2023-01-01T00:32:24.501Z, 27.69
2023-01-01T00:33:24.467Z, 27.69
2023-01-01T00:34:24.545Z, 27.68
2023-01-01T00:35:24.529Z, 27.69
2023-01-01T00:36:24.553Z, 27.69
2023-01-01T00:37:24.533Z, 27.67
2023-01-01T00:38:24.525Z, 27.67
2023-01-01T00:39:24.557Z, 27.67
2023-01-01T00:40:24.559Z, 27.65
2023-01-01T00:41:24.613Z, 27.65
2023-01-01T00:42:24.607Z, 27.65
2023-01-01T00:43:24.600Z, 27.65
2023-01-01T00:44:24.613Z, 27.64
2023-01-01T00:45:24.614Z, 27.61
2023-01-01T00:46:24.834Z, 27.60
2023-01-01T00:47:24.631Z, 27.58
2023-01-01T00:48:24.653Z, 27.57
2023-01-01T00:49:24.656Z, 27.56
2023-01-01T00:50:24.661Z, 27.56
2023-01-01T00:51:24.674Z, 27.60
2023-01-01T00:52:24.671Z, 27.57
2023-01-01T00:53:24.725Z, 27.55
2023-01-01T00:54:24.712Z, 27.55
2023-01-01T00:55:24.702Z, 27.54
2023-01-01T00:56:24.715Z, 27.54
2023-01-01T00:57:24.716Z, 27.54
2023-01-01T00:58:24.773Z, 27.54
2023-01-01T00:59:28.677Z, 27.51
2023-01-01T01:00:24.780Z, 27.47
2023-01-01T01:01:24.922Z, 27.45
2023-01-01T01:02:24.973Z, 27.44
2023-01-01T01:03:24.898Z, 27.45
2023-01-01T01:04:24.860Z, 27.43
2023-01-01T01:05:24.855Z, 27.44
2023-01-01T01:06:24.858Z, 27.43
2023-01-01T01:07:24.859Z, 27.42
2023-01-01T01:08:30.486Z, 27.40
2023-01-01T01:09:24.886Z, 27.39
2023-01-01T01:10:24.962Z, 27.39
2023-01-01T01:11:24.958Z, 27.38
2023-01-01T01:12:24.997Z, 27.38
2023-01-01T01:13:24.983Z, 27.36
2023-01-01T01:14:25.004Z, 27.37
2023-01-01T01:15:24.982Z, 27.37
2023-01-01T01:16:25.097Z, 27.35
2023-01-01T01:17:24.998Z, 27.34
2023-01-01T01:18:25.085Z, 27.32
2023-01-01T01:19:25.072Z, 27.31
2023-01-01T01:20:25.083Z, 27.33
2023-01-01T01:21:25.048Z, 27.31
2023-01-01T01:22:28.718Z, 27.28
2023-01-01T01:23:25.053Z, 27.27
2023-01-01T01:24:25.119Z, 27.26
2023-01-01T01:25:25.096Z, 27.27
2023-01-01T01:26:25.103Z, 27.29
2023-01-01T01:27:25.175Z, 27.29
2023-01-01T01:28:25.103Z, 27.28
2023-01-01T01:29:25.139Z, 27.25
2023-01-01T01:30:25.135Z, 27.25
2023-01-01T01:31:25.293Z, 27.26
2023-01-01T01:32:25.220Z, 27.27
2023-01-01T01:33:25.191Z, 27.24
2023-01-01T01:34:28.101Z, 27.22
2023-01-01T01:35:25.199Z, 27.20
2023-01-01T01:36:25.289Z, 27.19
2023-01-01T01:37:25.233Z, 27.19
2023-01-01T01:38:25.312Z, 27.18
2023-01-01T01:39:25.288Z, 27.17
2023-01-01T01:40:25.316Z, 27.16
2023-01-01T01:41:28.410Z, 27.14
2023-01-01T01:42:25.304Z, 27.15
2023-01-01T01:43:25.311Z, 27.14
2023-01-01T01:44:25.305Z, 27.13
2023-01-01T01:45:32.852Z, 27.14
2023-01-01T01:46:25.350Z, 27.12
2023-01-01T01:47:25.360Z, 27.10
2023-01-01T01:48:25.380Z, 27.12
2023-01-01T01:49:25.370Z, 27.08
2023-01-01T01:50:25.409Z, 27.07
2023-01-01T01:51:25.390Z, 27.07
2023-01-01T01:52:25.405Z, 27.06
2023-01-01T01:53:25.419Z, 27.09
2023-01-01T01:54:25.438Z, 27.09
2023-01-01T01:55:25.441Z, 27.08
2023-01-01T01:56:25.448Z, 27.07
2023-01-01T01:57:25.528Z, 27.06
2023-01-01T01:58:25.496Z, 27.05
2023-01-01T01:59:25.555Z, 27.06
2023-01-01T02:00:25.546Z, 27.06
2023-01-01T02:01:25.693Z, 27.06
2023-01-01T02:02:25.715Z, 27.06
2023-01-01T02:03:25.662Z, 27.06
2023-01-01T02:04:25.588Z, 27.06
2023-01-01T02:05:25.578Z, 27.06
2023-01-01T02:06:25.586Z, 27.03
2023-01-01T02:07:25.582Z, 27.03
2023-01-01T02:08:25.613Z, 26.99
2023-01-01T02:09:25.585Z, 27.00
2023-01-01T02:10:25.667Z, 26.98
2023-01-01T02:11:25.811Z, 26.98
2023-01-01T02:12:25.697Z, 26.98
2023-01-01T02:13:25.647Z, 26.95
2023-01-01T02:14:25.657Z, 26.96
2023-01-01T02:15:25.671Z, 26.95
2023-01-01T02:16:25.689Z, 26.94
2023-01-01T02:17:25.764Z, 26.92
2023-01-01T02:18:25.748Z, 26.93
2023-01-01T02:19:25.762Z, 26.92
2023-01-01T02:20:25.764Z, 26.92
2023-01-01T02:21:25.757Z, 26.92
2023-01-01T02:22:25.836Z, 26.92
2023-01-01T02:23:25.802Z, 26.91
2023-01-01T02:24:25.848Z, 26.87
2023-01-01T02:25:25.825Z, 26.86
2023-01-01T02:26:25.882Z, 26.86
2023-01-01T02:27:25.877Z, 26.85
2023-01-01T02:28:25.927Z, 26.84
2023-01-01T02:29:25.882Z, 26.82
2023-01-01T02:30:25.892Z, 26.80
2023-01-01T02:31:25.963Z, 26.79
2023-01-01T02:32:25.880Z, 26.79
2023-01-01T02:33:25.930Z, 26.79
2023-01-01T02:34:25.888Z, 26.81
2023-01-01T02:35:25.907Z, 26.81
2023-01-01T02:36:25.909Z, 26.78
2023-01-01T02:37:25.909Z, 26.78
2023-01-01T02:38:25.997Z, 26.81
2023-01-01T02:39:25.977Z, 26.79
2023-01-01T02:40:26.121Z, 26.77
2023-01-01T02:41:26.056Z, 26.78
2023-01-01T02:42:26.039Z, 26.79
2023-01-01T02:43:26.064Z, 26.78
2023-01-01T02:44:26.041Z, 26.78
2023-01-01T02:45:26.067Z, 26.76
2023-01-01T02:46:26.091Z, 26.75
2023-01-01T02:47:26.139Z, 26.73
2023-01-01T02:48:26.114Z, 26.73
2023-01-01T02:49:26.120Z, 26.75
2023-01-01T02:50:26.119Z, 26.76
2023-01-01T02:51:26.129Z, 26.75
2023-01-01T02:52:26.135Z, 26.73
2023-01-01T02:53:26.170Z, 26.73
2023-01-01T02:54:26.156Z, 26.72
2023-01-01T02:55:26.165Z, 26.71
2023-01-01T02:56:26.249Z, 26.70
2023-01-01T02:57:26.214Z, 26.69
2023-01-01T02:58:26.259Z, 26.69
2023-01-01T02:59:26.264Z, 26.69
2023-01-01T03:00:26.287Z, 26.67
2023-01-01T03:01:26.372Z, 26.66
2023-01-01T03:02:26.371Z, 26.67
2023-01-01T03:03:26.365Z, 26.66
2023-01-01T03:04:26.294Z, 26.63
2023-01-01T03:05:26.266Z, 26.61
2023-01-01T03:06:26.369Z, 26.62
2023-01-01T03:07:26.314Z, 26.62
2023-01-01T03:08:26.397Z, 26.62
2023-01-01T03:09:26.401Z, 26.61
2023-01-01T03:10:26.347Z, 26.59
2023-01-01T03:11:26.423Z, 26.59
2023-01-01T03:12:26.379Z, 26.59
2023-01-01T03:13:26.396Z, 26.57
2023-01-01T03:14:26.385Z, 26.56
2023-01-01T03:15:26.423Z, 26.56
2023-01-01T03:16:26.422Z, 26.56
2023-01-01T03:17:26.423Z, 26.59
2023-01-01T03:18:26.435Z, 26.62
2023-01-01T03:19:26.437Z, 26.63
2023-01-01T03:20:26.448Z, 26.60
2023-01-01T03:21:26.492Z, 26.59
2023-01-01T03:22:26.526Z, 26.56
2023-01-01T03:23:26.499Z, 26.54
2023-01-01T03:24:26.578Z, 26.52
2023-01-01T03:25:26.568Z, 26.54
2023-01-01T03:26:26.540Z, 26.55
2023-01-01T03:27:26.536Z, 26.55
2023-01-01T03:28:26.543Z, 26.53
2023-01-01T03:29:26.602Z, 26.52
2023-01-01T03:30:26.579Z, 26.51
2023-01-01T03:31:26.752Z, 26.49
2023-01-01T03:32:26.610Z, 26.47
2023-01-01T03:33:26.668Z, 26.46
2023-01-01T03:34:26.639Z, 26.46
2023-01-01T03:35:26.651Z, 26.46
2023-01-01T03:36:26.647Z, 26.45
2023-01-01T03:37:26.645Z, 26.45
2023-01-01T03:38:26.668Z, 26.45
2023-01-01T03:39:26.676Z, 26.45
2023-01-01T03:40:26.747Z, 26.43
2023-01-01T03:41:26.739Z, 26.44
2023-01-01T03:42:26.736Z, 26.46
2023-01-01T03:43:26.729Z, 26.47
2023-01-01T03:44:26.759Z, 26.46
2023-01-01T03:45:26.741Z, 26.48
2023-01-01T03:46:26.861Z, 26.47
2023-01-01T03:47:26.829Z, 26.45
2023-01-01T03:48:26.782Z, 26.46
2023-01-01T03:49:26.803Z, 26.50
2023-01-01T03:50:26.796Z, 26.50
2023-01-01T03:51:26.891Z, 26.48
2023-01-01T03:52:26.860Z, 26.46
2023-01-01T03:53:26.888Z, 26.45
2023-01-01T03:54:26.881Z, 26.43
2023-01-01T03:55:26.895Z, 26.41
2023-01-01T03:56:26.882Z, 26.41
2023-01-01T03:57:26.898Z, 26.42
2023-01-01T03:58:26.924Z, 26.42
2023-01-01T03:59:26.951Z, 26.43
2023-01-01T04:00:27.029Z, 26.41
2023-01-01T04:01:27.183Z, 26.42
2023-01-01T04:02:27.297Z, 26.41
2023-01-01T04:03:27.096Z, 26.42
2023-01-01T04:04:27.091Z, 26.42
2023-01-01T04:05:27.080Z, 26.40
2023-01-01T04:06:27.070Z, 26.38
2023-01-01T04:07:27.077Z, 26.36
2023-01-01T04:08:27.064Z, 26.35
2023-01-01T04:09:27.134Z, 26.34
2023-01-01T04:10:27.096Z, 26.33
2023-01-01T04:11:27.121Z, 26.33
2023-01-01T04:12:27.114Z, 26.33
2023-01-01T04:13:27.148Z, 26.31
2023-01-01T04:14:27.125Z, 26.30
2023-01-01T04:15:27.188Z, 26.30
2023-01-01T04:16:27.320Z, 26.27
2023-01-01T04:17:27.201Z, 26.27
2023-01-01T04:18:27.190Z, 26.27
2023-01-01T04:19:27.192Z, 26.27
2023-01-01T04:20:27.197Z, 26.27
2023-01-01T04:21:27.235Z, 26.26
2023-01-01T04:22:27.226Z, 26.24
2023-01-01T04:23:27.245Z, 26.23
2023-01-01T04:24:27.249Z, 26.22
2023-01-01T04:25:27.265Z, 26.21
2023-01-01T04:26:27.279Z, 26.20
2023-01-01T04:27:27.302Z, 26.20
2023-01-01T04:28:27.350Z, 26.21
2023-01-01T04:29:27.336Z, 26.22
2023-01-01T04:30:27.330Z, 26.21
2023-01-01T04:31:27.344Z, 26.46
2023-01-01T04:32:27.367Z, 27.28
2023-01-01T04:33:27.442Z, 32.00
2023-01-01T04:34:27.446Z, 39.72
2023-01-01T04:35:27.421Z, 43.41
2023-01-01T04:36:27.424Z, 42.84
2023-01-01T04:37:27.432Z, 40.84
2023-01-01T04:38:27.527Z, 38.96
2023-01-01T04:39:27.507Z, 36.98
2023-01-01T04:40:27.526Z, 35.04
2023-01-01T04:41:27.506Z, 33.51
2023-01-01T04:42:27.548Z, 32.25
2023-01-01T04:43:27.513Z, 30.72
2023-01-01T04:44:27.574Z, 29.18
2023-01-01T04:45:27.655Z, 27.86
2023-01-01T04:46:27.544Z, 26.66
2023-01-01T04:47:27.559Z, 25.83
2023-01-01T04:48:27.555Z, 29.46
2023-01-01T04:49:27.800Z, 34.85
2023-01-01T04:50:27.617Z, 38.88
2023-01-01T04:51:27.805Z, 41.45
2023-01-01T04:52:27.609Z, 40.43
2023-01-01T04:53:27.814Z, 38.72
2023-01-01T04:54:27.637Z, 36.96
2023-01-01T04:55:27.810Z, 35.29
2023-01-01T04:56:27.714Z, 33.86
2023-01-01T04:57:27.692Z, 32.61
2023-01-01T04:58:27.812Z, 31.50
2023-01-01T04:59:27.802Z, 30.29
2023-01-01T05:00:27.829Z, 28.55
2023-01-01T05:01:28.023Z, 27.98
2023-01-01T05:02:28.003Z, 27.92
2023-01-01T05:03:27.805Z, 33.11
2023-01-01T05:04:27.821Z, 38.23
2023-01-01T05:05:27.800Z, 42.80
2023-01-01T05:06:27.807Z, 47.16
2023-01-01T05:07:27.822Z, 51.73
2023-01-01T05:08:27.801Z, 55.81
2023-01-01T05:09:27.879Z, 59.99
2023-01-01T05:10:27.855Z, 68.33
2023-01-01T05:11:27.884Z, 52.70
2023-01-01T05:12:27.847Z, 52.71
2023-01-01T05:13:27.916Z, 53.70
2023-01-01T05:14:27.883Z, 55.06
2023-01-01T05:15:27.877Z, 57.47
2023-01-01T05:16:27.915Z, 60.27
2023-01-01T05:17:27.896Z, 68.36
2023-01-01T05:18:27.956Z, 54.83
2023-01-01T05:19:27.953Z, 53.31
2023-01-01T05:20:27.993Z, 54.52
2023-01-01T05:21:28.003Z, 55.85
2023-01-01T05:22:28.002Z, 58.53
2023-01-01T05:23:27.987Z, 62.17
2023-01-01T05:24:27.991Z, 65.43
2023-01-01T05:25:28.011Z, 53.63
2023-01-01T05:26:28.013Z, 54.29
2023-01-01T05:27:28.093Z, 55.74
2023-01-01T05:28:28.060Z, 56.41
2023-01-01T05:29:28.067Z, 56.98
2023-01-01T05:30:28.074Z, 58.48
2023-01-01T05:31:28.105Z, 58.32
2023-01-01T05:32:28.148Z, 57.23
2023-01-01T05:33:28.123Z, 56.21
2023-01-01T05:35:28.136Z, 55.60
2023-01-01T05:36:28.135Z, 55.09
2023-01-01T05:37:28.136Z, 54.38
2023-01-01T05:38:28.164Z, 53.63
2023-01-01T05:39:28.154Z, 53.01
2023-01-01T05:40:28.192Z, 52.57
2023-01-01T05:41:28.274Z, 52.22
2023-01-01T05:42:28.249Z, 51.73
2023-01-01T05:43:28.300Z, 51.31
2023-01-01T05:44:28.288Z, 50.89
2023-01-01T05:45:28.283Z, 50.49
2023-01-01T05:46:28.290Z, 50.11
2023-01-01T05:47:29.973Z, 49.76
2023-01-01T05:48:28.327Z, 49.42
2023-01-01T05:49:28.377Z, 49.05
2023-01-01T05:50:28.352Z, 48.73
2023-01-01T05:51:28.359Z, 48.41
2023-01-01T05:52:28.359Z, 48.09
2023-01-01T05:53:28.373Z, 47.79
2023-01-01T05:54:28.484Z, 47.48
2023-01-01T05:55:28.420Z, 47.17
2023-01-01T05:56:28.428Z, 46.86
2023-01-01T05:57:28.453Z, 46.55
2023-01-01T05:58:28.429Z, 46.29
2023-01-01T05:59:28.446Z, 45.99
2023-01-01T06:00:28.492Z, 45.72
2023-01-01T06:01:28.579Z, 45.34
2023-01-01T06:02:28.542Z, 44.86
2023-01-01T06:03:28.495Z, 44.33
2023-01-01T06:04:28.534Z, 43.84
2023-01-01T06:05:28.499Z, 43.38
2023-01-01T06:06:28.513Z, 42.94
2023-01-01T06:07:28.590Z, 42.52
2023-01-01T06:08:28.569Z, 42.09
2023-01-01T06:09:28.621Z, 41.64
2023-01-01T06:10:28.594Z, 41.24
2023-01-01T06:11:28.631Z, 40.85
2023-01-01T06:12:28.595Z, 40.48
2023-01-01T06:13:28.616Z, 40.16
2023-01-01T06:14:28.632Z, 39.86
2023-01-01T06:15:28.636Z, 39.56
2023-01-01T06:16:28.746Z, 39.44
2023-01-01T06:17:28.667Z, 39.47
2023-01-01T06:18:28.650Z, 39.41
2023-01-01T06:19:28.696Z, 39.25
2023-01-01T06:20:28.699Z, 39.04
2023-01-01T06:21:28.705Z, 38.86
2023-01-01T06:22:28.738Z, 38.70
2023-01-01T06:23:28.797Z, 38.56
2023-01-01T06:24:30.522Z, 38.44
2023-01-01T06:25:28.777Z, 38.32
2023-01-01T06:26:28.793Z, 38.20
2023-01-01T06:27:28.758Z, 38.08
2023-01-01T06:28:28.763Z, 37.96
2023-01-01T06:29:28.818Z, 37.84
2023-01-01T06:30:28.819Z, 37.73
2023-01-01T06:31:28.897Z, 37.64
2023-01-01T06:32:28.864Z, 37.55
2023-01-01T06:33:28.909Z, 37.46
2023-01-01T06:34:28.922Z, 37.39
2023-01-01T06:35:28.933Z, 37.28
2023-01-01T06:36:28.907Z, 37.21
2023-01-01T06:37:28.987Z, 37.16
2023-01-01T06:38:28.943Z, 37.08
2023-01-01T06:39:28.972Z, 37.02
2023-01-01T06:40:28.953Z, 36.97
2023-01-01T06:41:28.984Z, 36.87
2023-01-01T06:42:33.705Z, 36.81
2023-01-01T06:43:28.975Z, 36.74
2023-01-01T06:44:28.993Z, 36.69
2023-01-01T06:45:28.995Z, 36.59
2023-01-01T06:46:29.196Z, 36.58
2023-01-01T06:47:29.042Z, 36.52
2023-01-01T06:48:29.098Z, 36.46
2023-01-01T06:49:29.079Z, 36.38
2023-01-01T06:50:29.094Z, 36.34
2023-01-01T06:51:29.081Z, 36.28
2023-01-01T06:52:29.089Z, 36.20
2023-01-01T06:53:29.081Z, 36.14
2023-01-01T06:54:29.091Z, 36.09
2023-01-01T06:55:29.104Z, 36.03
2023-01-01T06:56:29.112Z, 36.00
2023-01-01T06:57:29.202Z, 35.95
2023-01-01T06:58:29.188Z, 35.90
2023-01-01T06:59:29.223Z, 35.81
2023-01-01T07:00:29.207Z, 35.76
2023-01-01T07:01:29.344Z, 35.75
2023-01-01T07:02:29.549Z, 35.67
2023-01-01T07:03:29.309Z, 35.59
2023-01-01T07:04:29.270Z, 35.57
2023-01-01T07:05:29.331Z, 35.53
2023-01-01T07:06:29.322Z, 35.46
2023-01-01T07:07:34.137Z, 35.42
2023-01-01T07:08:29.306Z, 35.38
2023-01-01T07:09:29.309Z, 35.31
2023-01-01T07:10:29.319Z, 35.25
2023-01-01T07:11:29.340Z, 35.20
2023-01-01T07:12:29.342Z, 35.19
2023-01-01T07:13:29.372Z, 35.15
2023-01-01T07:14:29.366Z, 35.11
2023-01-01T07:15:29.376Z, 35.06
2023-01-01T07:16:29.477Z, 35.01
2023-01-01T07:17:29.417Z, 35.00
2023-01-01T07:18:29.425Z, 34.97
2023-01-01T07:19:29.406Z, 34.92
2023-01-01T07:20:29.406Z, 34.89
2023-01-01T07:21:30.068Z, 34.85
2023-01-01T07:22:29.444Z, 34.83
2023-01-01T07:23:29.468Z, 34.80
2023-01-01T07:24:29.457Z, 34.74
2023-01-01T07:25:29.549Z, 34.70
2023-01-01T07:26:29.557Z, 34.68
2023-01-01T07:27:29.513Z, 34.64
2023-01-01T07:28:29.520Z, 34.60
2023-01-01T07:29:29.595Z, 34.56
2023-01-01T07:30:29.664Z, 34.52
2023-01-01T07:31:29.599Z, 34.46
2023-01-01T07:32:29.644Z, 34.46
2023-01-01T07:33:29.619Z, 34.42
2023-01-01T07:34:29.662Z, 34.37
2023-01-01T07:35:29.641Z, 34.33
2023-01-01T07:36:29.651Z, 34.30
2023-01-01T07:37:29.636Z, 34.28
2023-01-01T07:38:29.707Z, 34.26
2023-01-01T07:39:29.683Z, 34.24
2023-01-01T07:40:29.718Z, 34.21
2023-01-01T07:41:29.688Z, 34.17
2023-01-01T07:42:29.756Z, 34.12
2023-01-01T07:43:29.769Z, 34.07
2023-01-01T07:44:29.735Z, 34.04
2023-01-01T07:45:29.809Z, 33.99
2023-01-01T07:46:29.889Z, 33.96
2023-01-01T07:47:29.789Z, 33.95
2023-01-01T07:48:32.270Z, 33.91
2023-01-01T07:49:29.803Z, 33.87
2023-01-01T07:50:29.861Z, 33.87
2023-01-01T07:51:29.835Z, 33.85
2023-01-01T07:52:29.824Z, 33.83
2023-01-01T07:53:29.833Z, 33.80
2023-01-01T07:54:29.908Z, 33.79
2023-01-01T07:55:29.880Z, 33.74
2023-01-01T07:56:29.949Z, 33.69
2023-01-01T07:57:29.939Z, 33.66
2023-01-01T07:58:29.958Z, 33.68
2023-01-01T07:59:29.955Z, 33.67
2023-01-01T08:00:30.104Z, 33.61
2023-01-01T08:01:30.131Z, 33.61
2023-01-01T08:02:30.073Z, 33.56
2023-01-01T08:03:29.989Z, 33.55
2023-01-01T08:04:29.977Z, 33.53
2023-01-01T08:05:29.983Z, 33.48
2023-01-01T08:06:29.987Z, 33.42
2023-01-01T08:07:30.057Z, 33.41
2023-01-01T08:08:30.028Z, 33.41
2023-01-01T08:09:30.035Z, 33.33
2023-01-01T08:10:30.078Z, 33.32
2023-01-01T08:11:30.040Z, 33.33
2023-01-01T08:12:30.068Z, 33.28
2023-01-01T08:13:30.077Z, 33.28
2023-01-01T08:14:30.093Z, 33.25
2023-01-01T08:15:30.142Z, 33.23
2023-01-01T08:16:30.176Z, 33.23
2023-01-01T08:17:30.115Z, 33.21
2023-01-01T08:18:30.239Z, 33.19
2023-01-01T08:19:30.178Z, 33.15
2023-01-01T08:20:30.223Z, 33.15
2023-01-01T08:21:30.224Z, 33.15
2023-01-01T08:22:30.249Z, 33.09
2023-01-01T08:23:30.233Z, 33.08
2023-01-01T08:24:30.235Z, 33.10
2023-01-01T08:25:30.234Z, 33.08
2023-01-01T08:26:30.290Z, 33.00
2023-01-01T08:27:30.266Z, 32.97
2023-01-01T08:28:30.289Z, 32.98
2023-01-01T08:29:30.324Z, 32.96
2023-01-01T08:30:30.319Z, 32.94
2023-01-01T08:31:30.426Z, 32.93
2023-01-01T08:32:30.356Z, 32.91
2023-01-01T08:33:30.385Z, 32.89
2023-01-01T08:34:30.353Z, 32.88
2023-01-01T08:35:30.411Z, 32.81
2023-01-01T08:36:30.402Z, 32.83
2023-01-01T08:37:30.412Z, 32.80
2023-01-01T08:38:30.405Z, 32.79
2023-01-01T08:39:30.405Z, 32.76
2023-01-01T08:40:30.403Z, 32.76
2023-01-01T08:41:30.413Z, 32.77
2023-01-01T08:42:30.479Z, 32.74
2023-01-01T08:43:30.477Z, 32.71
2023-01-01T08:44:30.467Z, 32.70
2023-01-01T08:45:30.481Z, 32.65
2023-01-01T08:46:30.592Z, 32.62
2023-01-01T08:47:30.508Z, 32.61
2023-01-01T08:48:31.045Z, 32.58
2023-01-01T08:49:30.508Z, 32.59
2023-01-01T08:50:30.520Z, 32.54
2023-01-01T08:51:30.523Z, 32.55
2023-01-01T08:52:30.535Z, 32.52
2023-01-01T08:53:30.597Z, 32.51
2023-01-01T08:54:30.573Z, 32.47
2023-01-01T08:55:30.656Z, 32.47
2023-01-01T08:56:30.623Z, 32.46
2023-01-01T08:57:30.627Z, 32.40
2023-01-01T08:58:30.624Z, 32.34
2023-01-01T08:59:30.624Z, 32.31
2023-01-01T09:00:30.626Z, 32.32
2023-01-01T09:01:30.723Z, 32.32
2023-01-01T09:02:30.838Z, 32.29
2023-01-01T09:03:30.759Z, 32.26
2023-01-01T09:04:30.757Z, 32.26
2023-01-01T09:05:30.720Z, 32.25
2023-01-01T09:06:30.748Z, 32.56
2023-01-01T09:07:30.719Z, 33.43
2023-01-01T09:08:30.719Z, 39.35
2023-01-01T09:09:31.876Z, 47.00
2023-01-01T09:10:30.759Z, 45.51
2023-01-01T09:11:30.778Z, 42.60
2023-01-01T09:12:30.822Z, 40.57
2023-01-01T09:13:30.812Z, 38.89
2023-01-01T09:14:30.816Z, 37.61
2023-01-01T09:15:30.873Z, 36.60
2023-01-01T09:16:30.931Z, 35.40
2023-01-01T09:17:30.873Z, 33.97
2023-01-01T09:18:30.860Z, 32.73
2023-01-01T09:19:30.866Z, 31.80
2023-01-01T09:20:30.863Z, 31.02
2023-01-01T09:21:30.885Z, 30.26
2023-01-01T09:22:30.979Z, 29.36
2023-01-01T09:23:30.960Z, 30.10
2023-01-01T09:24:30.986Z, 32.36
2023-01-01T09:25:30.947Z, 34.91
2023-01-01T09:26:30.942Z, 37.67
2023-01-01T09:27:30.976Z, 40.63
2023-01-01T09:28:30.988Z, 44.12
2023-01-01T09:29:31.007Z, 48.05
2023-01-01T09:30:31.008Z, 52.46
2023-01-01T09:31:31.144Z, 56.34
2023-01-01T09:32:31.055Z, 60.03
2023-01-01T09:33:31.117Z, 68.93
2023-01-01T09:34:31.077Z, 53.06
2023-01-01T09:35:31.135Z, 52.35
2023-01-01T09:36:31.105Z, 53.65
2023-01-01T09:37:31.099Z, 54.68
2023-01-01T09:38:31.194Z, 56.98
2023-01-01T09:39:31.163Z, 59.73
2023-01-01T09:40:31.212Z, 68.34
2023-01-01T09:41:31.242Z, 56.87
2023-01-01T09:42:31.192Z, 52.89
2023-01-01T09:43:31.217Z, 54.22
2023-01-01T09:44:31.200Z, 55.71
2023-01-01T09:45:31.245Z, 57.56
2023-01-01T09:46:31.888Z, 58.54
2023-01-01T09:47:31.231Z, 59.31
2023-01-01T09:48:31.258Z, 59.95
2023-01-01T09:49:31.253Z, 60.06
2023-01-01T09:50:31.243Z, 60.39
2023-01-01T09:51:31.313Z, 60.52
2023-01-01T09:52:31.292Z, 60.52
2023-01-01T09:53:31.289Z, 60.55
2023-01-01T09:54:31.297Z, 60.52
2023-01-01T09:55:31.308Z, 60.43
2023-01-01T09:56:31.400Z, 60.37
2023-01-01T09:57:31.373Z, 60.27
2023-01-01T09:58:31.433Z, 60.17
2023-01-01T09:59:31.398Z, 60.00
2023-01-01T10:00:31.388Z, 59.92
2023-01-01T10:01:31.583Z, 59.68
2023-01-01T10:02:31.428Z, 59.47
2023-01-01T10:03:31.423Z, 59.41
2023-01-01T10:04:31.455Z, 59.21
2023-01-01T10:05:31.437Z, 59.07
2023-01-01T10:06:31.426Z, 58.86
2023-01-01T10:07:31.472Z, 58.74
2023-01-01T10:08:31.462Z, 58.61
2023-01-01T10:09:31.500Z, 58.45
2023-01-01T10:10:31.614Z, 58.39
2023-01-01T10:11:31.533Z, 58.18
2023-01-01T10:12:31.560Z, 57.96
2023-01-01T10:13:31.596Z, 57.85
2023-01-01T10:14:31.600Z, 57.70
2023-01-01T10:15:31.600Z, 57.58
2023-01-01T10:16:31.683Z, 57.43
2023-01-01T10:17:31.582Z, 57.29
2023-01-01T10:18:31.670Z, 57.20
2023-01-01T10:19:31.671Z, 57.05
2023-01-01T10:20:31.672Z, 56.95
2023-01-01T10:21:31.657Z, 56.78
2023-01-01T10:22:31.648Z, 56.70
2023-01-01T10:23:31.656Z, 56.37
2023-01-01T10:24:31.703Z, 56.30
2023-01-01T10:25:31.680Z, 56.15
2023-01-01T10:26:31.689Z, 56.06
2023-01-01T10:27:31.773Z, 56.02
2023-01-01T10:28:31.721Z, 55.84
2023-01-01T10:29:31.802Z, 55.76
2023-01-01T10:30:31.762Z, 55.68
2023-01-01T10:31:31.951Z, 55.66
2023-01-01T10:32:31.762Z, 55.43
2023-01-01T10:33:31.774Z, 55.23
2023-01-01T10:34:31.770Z, 55.17
2023-01-01T10:35:31.779Z, 55.13
2023-01-01T10:36:32.074Z, 54.96
2023-01-01T10:37:31.796Z, 54.85
2023-01-01T10:38:31.801Z, 54.78
2023-01-01T10:39:31.810Z, 54.74
2023-01-01T10:40:31.823Z, 54.47
2023-01-01T10:41:31.866Z, 54.41
2023-01-01T10:42:31.883Z, 54.29
2023-01-01T10:43:31.882Z, 54.24
2023-01-01T10:44:31.983Z, 54.19
2023-01-01T10:45:32.031Z, 54.13
2023-01-01T10:46:32.620Z, 54.01
2023-01-01T10:47:31.944Z, 53.98
2023-01-01T10:48:31.964Z, 53.91
2023-01-01T10:49:31.970Z, 53.81
2023-01-01T10:50:31.972Z, 53.66
2023-01-01T10:51:32.061Z, 53.53
2023-01-01T10:52:32.024Z, 53.44
2023-01-01T10:53:32.038Z, 53.29
2023-01-01T10:54:32.105Z, 53.24
2023-01-01T10:55:32.027Z, 53.16
2023-01-01T10:56:32.038Z, 53.06
2023-01-01T10:57:32.062Z, 52.97
2023-01-01T10:58:32.135Z, 52.84
2023-01-01T10:59:32.112Z, 52.72
2023-01-01T11:00:32.109Z, 52.68
2023-01-01T11:01:32.456Z, 53.50
2023-01-01T11:02:32.358Z, 54.83
2023-01-01T11:03:32.194Z, 55.01
2023-01-01T11:04:32.174Z, 54.98
2023-01-01T11:05:32.209Z, 54.71
2023-01-01T11:06:32.194Z, 54.32
2023-01-01T11:07:32.209Z, 54.00
2023-01-01T11:08:32.197Z, 53.74
2023-01-01T11:09:32.213Z, 53.31
2023-01-01T11:10:32.217Z, 52.86
2023-01-01T11:11:32.219Z, 52.38
2023-01-01T11:13:03.667Z, 51.94
2023-01-01T11:13:32.258Z, 51.44
2023-01-01T11:14:32.343Z, 51.00
2023-01-01T11:15:32.376Z, 50.54
2023-01-01T11:16:32.434Z, 50.11
2023-01-01T11:17:32.388Z, 49.70
2023-01-01T11:18:32.379Z, 49.18
2023-01-01T11:19:32.364Z, 48.68
2023-01-01T11:20:32.358Z, 48.25
2023-01-01T11:21:32.382Z, 47.77
2023-01-01T11:22:32.387Z, 47.52
2023-01-01T11:23:32.416Z, 47.18
2023-01-01T11:24:32.466Z, 46.79
2023-01-01T11:25:32.489Z, 46.42
2023-01-01T11:26:32.467Z, 46.09
2023-01-01T11:27:32.452Z, 45.82
2023-01-01T11:28:32.477Z, 45.49
2023-01-01T11:29:32.466Z, 45.25
2023-01-01T11:30:32.489Z, 45.01
2023-01-01T11:31:32.487Z, 44.80
2023-01-01T11:32:32.491Z, 44.60
2023-01-01T11:33:32.520Z, 44.46
2023-01-01T11:34:32.514Z, 44.26
2023-01-01T11:35:32.592Z, 44.10
2023-01-01T11:36:32.574Z, 43.93
2023-01-01T11:37:32.568Z, 43.83
2023-01-01T11:38:32.582Z, 43.71
2023-01-01T11:39:32.599Z, 43.56
2023-01-01T11:40:32.607Z, 43.38
2023-01-01T11:41:32.600Z, 43.22
2023-01-01T11:42:32.602Z, 43.12
2023-01-01T11:43:32.644Z, 43.00
2023-01-01T11:44:32.731Z, 42.83
2023-01-01T11:45:37.350Z, 42.73
2023-01-01T11:46:32.784Z, 42.64
2023-01-01T11:47:32.718Z, 42.55
2023-01-01T11:48:32.763Z, 42.45
2023-01-01T11:49:32.723Z, 42.34
2023-01-01T11:50:32.807Z, 42.19
2023-01-01T11:51:32.827Z, 42.08
2023-01-01T11:52:32.807Z, 41.97
2023-01-01T11:53:32.788Z, 41.91
2023-01-01T11:54:32.816Z, 41.83
2023-01-01T11:55:32.786Z, 41.73
2023-01-01T11:56:32.786Z, 41.68
2023-01-01T11:57:32.840Z, 41.60
2023-01-01T11:58:32.811Z, 41.52
2023-01-01T11:59:32.836Z, 41.45
2023-01-01T12:00:32.842Z, 41.32
2023-01-01T12:01:33.008Z, 41.31
2023-01-01T12:02:32.955Z, 41.20
2023-01-01T12:03:33.792Z, 41.10
2023-01-01T12:04:32.873Z, 41.05
2023-01-01T12:05:32.887Z, 40.96
2023-01-01T12:06:32.968Z, 40.87
2023-01-01T12:07:32.954Z, 40.85
2023-01-01T12:08:32.985Z, 40.78
2023-01-01T12:09:32.985Z, 40.70
2023-01-01T12:10:33.029Z, 40.61
2023-01-01T12:11:33.021Z, 40.52
2023-01-01T12:12:33.030Z, 40.49
2023-01-01T12:13:33.018Z, 40.43
2023-01-01T12:14:33.230Z, 40.36
2023-01-01T12:15:33.169Z, 40.29
2023-01-01T12:16:33.083Z, 40.25
2023-01-01T12:17:33.115Z, 40.18
2023-01-01T12:18:33.083Z, 40.14
2023-01-01T12:19:33.079Z, 40.06
2023-01-01T12:20:33.082Z, 40.01
2023-01-01T12:21:33.149Z, 39.99
2023-01-01T12:22:33.138Z, 39.90
2023-01-01T12:23:33.128Z, 39.80
2023-01-01T12:24:33.128Z, 39.72
2023-01-01T12:25:33.138Z, 39.73
2023-01-01T12:26:33.196Z, 39.68
2023-01-01T12:27:33.188Z, 39.64
2023-01-01T12:28:33.188Z, 39.53
2023-01-01T12:29:33.179Z, 39.51